Flight Track Log - Related Links

Times and Time Zones

All times are in EDT time to prevent confusion due to time zone crossing. See the FDX739 flight status page for this flight to view local times or setup timezone preferences in your user account.

Time Position Orientation Groundspeed Altitude Reporting Facility
EDT Latitude Longitude Course Direction KTS MPH feet Rate Location/Type
Fri 07:01:53 PM 39.8150 -82.9294 62° Northeast 139 160 1,300  Level Indianapolis Center
Fri 07:07:22 PM 39.9350 -82.6380 37° Northeast 18,900 3,210 Climbing FlightAware ADS-B
Fri 07:08:02 PM 40.0050 -82.5700 37° Northeast 19,000  Climbing FlightAware ADS-B
Fri 07:08:42 PM 40.0780 -82.4990 37° Northeast 19,000 150 Level FlightAware ADS-B
Fri 07:09:27 PM 40.1530 -82.4250 37° Northeast 19,000 75 Level FlightAware ADS-B
Fri 07:10:07 PM 40.2170 -82.3630 36° Northeast 19,000 48 Level FlightAware ADS-B
Fri 07:10:52 PM 40.2950 -82.2870 37° Northeast 19,000 36 Level FlightAware ADS-B
Fri 07:11:32 PM 40.3630 -82.2200 37° Northeast 19,000 29 Level FlightAware ADS-B
Fri 07:12:12 PM 40.4300 -82.1540 37° Northeast 19,000 24 Level FlightAware ADS-B
Fri 07:12:57 PM 40.5040 -82.0810 37° Northeast 18,100 21 Descending FlightAware ADS-B
Fri 07:13:37 PM 40.5720 -82.0140 37° Northeast 16,900 -143 Descending FlightAware ADS-B
Fri 07:14:17 PM 40.6360 -81.9500 37° Northeast 15,700 -320 Descending FlightAware ADS-B
Fri 07:15:02 PM 40.7040 -81.8820 37° Northeast 14,100 -463 Descending FlightAware ADS-B
Fri 07:15:42 PM 40.7630 -81.8240 37° Northeast 12,800 -626 Descending FlightAware ADS-B
Fri 07:16:27 PM 40.8290 -81.7580 37° Northeast 11,400 -732 Descending FlightAware ADS-B
Fri 07:17:07 PM 40.8850 -81.7000 38° Northeast 10,300 -826 Descending FlightAware ADS-B
Fri 07:17:47 PM 40.9380 -81.6510 35° Northeast 10,200 -882 Descending FlightAware ADS-B
Fri 07:18:02 PM 40.9620 -81.6430 14° North 10,200 -835 Level FlightAware ADS-B
Fri 07:18:32 PM 41.0010 -81.6550 347° North 10,200 -816 Level FlightAware ADS-B
Fri 07:19:12 PM 41.0530 -81.6830 338° Northwest 10,200 -779 Level FlightAware ADS-B
Fri 07:19:57 PM 41.1130 -81.7110 341° North 10,000 -735 Descending FlightAware ADS-B
Fri 07:20:22 PM 41.1460 -81.7140 356° North 9,500 -707 Descending FlightAware ADS-B
Fri 07:20:52 PM 41.1880 -81.7180 356° North 8,900 -723 Descending FlightAware ADS-B
Fri 07:21:17 PM 41.2220 -81.7210 356° North 8,500 -741 Descending FlightAware ADS-B
Fri 07:21:47 PM 41.2580 -81.7170 North 8,100 -747 Descending FlightAware ADS-B
Fri 07:22:17 PM 41.2970 -81.7110 North 7,600 -749 Descending FlightAware ADS-B
Fri 07:22:42 PM 41.3300 -81.7070 North 6,800 -758 Descending FlightAware ADS-B
Fri 07:23:12 PM 41.3660 -81.7020 North 5,800 -789 Descending FlightAware ADS-B
Fri 07:23:37 PM 41.3980 -81.6970 North 5,100 -827 Descending FlightAware ADS-B
Fri 07:24:07 PM 41.4330 -81.6920 North 4,300 -849 Descending FlightAware ADS-B
Fri 07:24:32 PM 41.4580 -81.6890 North 4,200 -872 Descending FlightAware ADS-B
Fri 07:25:02 PM 41.4810 -81.7080 328° Northwest 3,500 -856 Descending FlightAware ADS-B
Fri 07:25:47 PM 41.4780 -81.7480 264° West 2,700 -872 Descending FlightAware ADS-B
Fri 07:26:12 PM 41.4680 -81.7650 232° Southwest 2,500 -880 Descending FlightAware ADS-B
Fri 07:26:27 PM 41.4610 -81.7760 230° Southwest 2,400 -871 Descending FlightAware ADS-B
Fri 07:26:42 PM 41.4560 -81.7840 230° Southwest 2,200 -865 Descending FlightAware ADS-B
Fri 07:27:07 PM 41.4460 -81.8000 230° Southwest 1,900 -864 Descending FlightAware ADS-B
Fri 07:27:37 PM 41.4360 -81.8160 230° Southwest 1,600 -861 Descending FlightAware ADS-B
Fri 07:27:52 PM 41.4310 -81.8240 230° Southwest 1,500 -854 Descending FlightAware ADS-B
Fri 07:28:17 PM 41.4230 -81.8360 228° Southwest 1,200 -849 Descending FlightAware ADS-B

Login

Don't have an account? Register now (free) for customized features, flight alerts, and more!